Time;durP1;ratioP1;P1;durP2;ratioP2;P2;SDS_P1;SDS_P2;PMS_P1;PMS_P2;Temp;Humidity;BMP_temperature;BMP_pressure;BME280_temperature;BME280_humidity;BME280_pressure;Samples;Min_cycle;Max_cycle;Signal;HPM_P1;HPM_P2
2022/03/22 00:01:03;;;;;;;;;24.00;21.00;;;;;29.67;21.12;102280.97;5054961;28;45610;-74
2022/03/22 00:03:29;;;;;;;;;29.67;24.33;;;;;29.52;21.00;102260.56;5054759;28;45597;-74
2022/03/22 00:05:54;;;;;;;;;23.33;20.00;;;;;29.56;21.15;102281.38;5056118;28;45550;-74
2022/03/22 00:08:20;;;;;;;;;22.67;17.33;;;;;29.58;21.35;102289.53;5055839;28;45607;-74
2022/03/22 00:10:46;;;;;;;;;21.67;21.00;;;;;29.46;20.81;102263.50;5056335;28;45495;-73
2022/03/22 00:13:11;;;;;;;;;23.33;20.33;;;;;29.47;20.84;102268.03;5055743;28;45595;-74
2022/03/22 00:15:37;;;;;;;;;28.67;19.00;;;;;29.52;20.61;102282.44;5054948;28;45488;-74
2022/03/22 00:18:03;;;;;;;;;21.33;21.33;;;;;29.40;20.91;102277.41;5056156;28;45394;-73
2022/03/22 00:20:29;;;;;;;;;21.33;20.00;;;;;29.53;20.70;102294.25;5055816;28;45562;-74
2022/03/22 00:22:56;;;;;;;;;26.33;22.33;;;;;29.49;20.79;102278.91;5056316;28;45225;-73
2022/03/22 00:25:21;;;;;;;;;19.33;18.67;;;;;29.59;20.30;102288.56;5054518;28;45558;-73
2022/03/22 00:27:51;;;;;;;;;18.00;18.00;;;;;29.47;20.59;102283.56;5055538;28;45903;-74
2022/03/22 00:30:24;;;;;;;;;21.33;16.33;;;;;29.58;20.31;102298.59;5055772;28;45522;-73
2022/03/22 00:32:53;;;;;;;;;23.67;18.00;;;;;29.52;20.24;102293.38;5055751;28;45376;-74
2022/03/22 00:35:39;;;;;;;;;20.67;19.00;;;;;29.55;20.52;102300.53;5055748;28;45379;-74
2022/03/22 00:38:13;;;;;;;;;22.33;21.33;;;;;29.59;20.33;102310.44;5055252;28;46308;-74
2022/03/22 00:40:39;;;;;;;;;19.00;18.00;;;;;29.51;20.09;102308.00;5055840;28;45230;-74
2022/03/22 00:43:05;;;;;;;;;23.00;18.00;;;;;29.45;20.62;102320.97;5054303;28;45532;-74
2022/03/22 00:45:32;;;;;;;;;17.67;17.33;;;;;29.37;20.50;102299.41;5055608;28;45348;-73
2022/03/22 00:47:59;;;;;;;;;22.33;18.67;;;;;29.31;20.35;102300.50;5055853;28;45538;-74
2022/03/22 00:50:30;;;;;;;;;18.00;18.00;;;;;28.96;20.56;102230.63;5055343;28;45775;-73
2022/03/22 00:52:57;;;;;;;;;19.67;18.33;;;;;29.37;20.27;102300.28;5055231;28;45349;-74
2022/03/22 00:55:24;;;;;;;;;20.33;16.33;;;;;29.08;20.76;102299.41;5055570;28;45519;-74
2022/03/22 00:57:51;;;;;;;;;18.67;17.33;;;;;29.13;20.45;102306.56;5055115;28;45390;-74
2022/03/22 01:00:18;;;;;;;;;24.33;18.33;;;;;28.98;20.42;102287.03;5055351;28;45391;-75
2022/03/22 01:02:49;;;;;;;;;19.67;19.33;;;;;29.16;20.39;102306.47;5055644;28;45230;-75
2022/03/22 01:05:17;;;;;;;;;20.33;18.33;;;;;29.12;20.16;102307.53;5055348;28;45443;-74
2022/03/22 01:07:45;;;;;;;;;22.00;17.00;;;;;28.90;20.32;102300.03;5055287;28;45380;-74
2022/03/22 01:10:12;;;;;;;;;17.33;16.67;;;;;28.68;20.20;102288.97;5055073;28;45289;-74
2022/03/22 01:12:39;;;;;;;;;17.33;17.00;;;;;28.81;20.10;102295.78;5055184;28;45348;-74
2022/03/22 01:15:10;;;;;;;;;23.00;19.33;;;;;28.69;20.09;102286.19;5055078;28;45264;-73
2022/03/22 01:17:36;;;;;;;;;19.00;16.00;;;;;28.80;19.71;102295.84;5054904;28;45383;-74
2022/03/22 01:20:05;;;;;;;;;17.33;16.33;;;;;28.82;19.54;102292.13;5053554;28;45488;-74
2022/03/22 01:22:30;;;;;;;;;21.67;18.67;;;;;28.85;19.66;102289.28;5055108;28;45450;-74
2022/03/22 01:24:55;;;;;;;;;21.67;19.33;;;;;28.90;19.43;102286.38;5055052;28;45498;-73
2022/03/22 01:27:22;;;;;;;;;17.67;17.00;;;;;28.90;19.46;102276.38;5054921;28;47542;-74
2022/03/22 01:29:48;;;;;;;;;18.00;15.67;;;;;28.83;18.72;102276.63;5054881;28;45431;-74
2022/03/22 01:32:14;;;;;;;;;19.33;19.00;;;;;28.97;19.29;102287.97;5055275;28;45507;-74
2022/03/22 01:34:40;;;;;;;;;19.00;16.00;;;;;29.04;19.10;102284.09;5055147;28;45459;-74
2022/03/22 01:37:05;;;;;;;;;15.00;15.00;;;;;29.13;19.24;102301.09;5054959;28;45459;-74
2022/03/22 01:39:31;;;;;;;;;14.33;14.33;;;;;28.88;19.14;102263.72;5054354;28;45436;-73
2022/03/22 01:41:57;;;;;;;;;16.00;15.00;;;;;29.02;19.08;102298.75;5054941;28;45327;-74
2022/03/22 01:44:27;;;;;;;;;16.00;15.00;;;;;28.96;19.08;102304.41;5054642;28;45581;-74
2022/03/22 01:46:56;;;;;;;;;19.67;17.00;;;;;28.91;19.23;102293.66;5054872;28;46204;-73
2022/03/22 01:49:22;;;;;;;;;13.67;9.67;;;;;28.84;18.87;102268.38;5054848;28;45384;-74
2022/03/22 01:51:49;;;;;;;;;17.33;16.33;;;;;29.06;18.86;102303.16;5053508;28;45326;-73
2022/03/22 01:54:15;;;;;;;;;21.33;18.67;;;;;28.86;19.37;102284.69;5054450;28;45573;-73
2022/03/22 01:56:42;;;;;;;;;19.00;18.00;;;;;28.74;19.38;102286.03;5054657;28;45577;-73
2022/03/22 01:59:07;;;;;;;;;22.67;19.33;;;;;28.88;19.10;102291.03;5053378;28;45389;-73
2022/03/22 02:07:05;;;;;;;;;24.00;22.67;;;;;28.80;19.31;102279.47;5058280;28;45750;-74
2022/03/22 02:09:30;;;;;;;;;16.67;16.67;;;;;28.67;19.30;102271.66;5057616;28;45343;-73
2022/03/22 02:11:55;;;;;;;;;18.33;18.33;;;;;28.66;19.68;102269.00;5058166;28;45346;-73
2022/03/22 02:14:21;;;;;;;;;15.67;14.33;;;;;28.28;19.85;102243.81;5058092;28;45593;-73
2022/03/22 02:16:46;;;;;;;;;15.33;14.33;;;;;28.61;19.61;102292.78;5058105;28;46210;-73
2022/03/22 02:19:14;;;;;;;;;16.00;15.00;;;;;28.52;19.72;102264.84;5058083;28;45395;-73
2022/03/22 02:21:41;;;;;;;;;18.67;17.00;;;;;28.51;19.96;102293.09;5058017;28;45434;-74
2022/03/22 02:24:07;;;;;;;;;18.33;16.00;;;;;28.11;20.20;102268.88;5057642;28;45378;-74
2022/03/22 02:26:32;;;;;;;;;15.33;15.33;;;;;28.39;19.67;102291.63;5057629;28;45592;-74
2022/03/22 02:28:59;;;;;;;;;18.33;17.00;;;;;28.27;20.07;102263.84;5057881;28;45503;-75
2022/03/22 02:31:27;;;;;;;;;17.00;16.67;;;;;28.53;19.54;102282.13;5057878;28;45334;-74
2022/03/22 02:33:53;;;;;;;;;21.67;21.67;;;;;28.45;19.67;102284.19;5057804;28;45563;-74
2022/03/22 02:36:20;;;;;;;;;21.00;19.00;;;;;28.32;20.05;102281.84;5057453;28;46544;-75
2022/03/22 02:38:45;;;;;;;;;19.67;17.00;;;;;28.40;19.93;102287.97;5055944;28;45427;-74
2022/03/22 02:41:17;;;;;;;;;21.00;20.00;;;;;28.41;20.07;102278.84;5057575;28;45461;-74
2022/03/22 02:43:43;;;;;;;;;22.67;20.67;;;;;28.38;19.93;102264.38;5057500;28;45347;-74
2022/03/22 02:46:09;;;;;;;;;23.33;19.00;;;;;28.53;19.48;102290.31;5057466;28;46295;-74
2022/03/22 02:48:34;;;;;;;;;19.67;16.00;;;;;28.51;19.60;102298.56;5057163;28;45422;-74
2022/03/22 02:51:00;;;;;;;;;20.67;18.67;;;;;28.48;19.60;102293.19;5057744;28;45448;-75
2022/03/22 02:53:25;;;;;;;;;23.33;19.33;;;;;28.49;19.64;102299.53;5053010;28;45685;-75
2022/03/22 02:55:50;;;;;;;;;19.67;18.33;;;;;28.48;19.66;102303.22;5055956;28;46133;-74
2022/03/22 02:58:16;;;;;;;;;22.00;19.00;;;;;28.41;19.75;102297.97;5056734;28;50201;-74
2022/03/22 03:00:41;;;;;;;;;24.00;20.00;;;;;28.03;19.69;102231.81;5056940;28;45436;-74
2022/03/22 03:03:06;;;;;;;;;25.00;23.00;;;;;28.26;19.56;102281.19;5056841;28;45312;-74
2022/03/22 03:05:33;;;;;;;;;25.67;22.67;;;;;28.43;19.97;102310.66;5056616;28;45344;-74
2022/03/22 03:07:58;;;;;;;;;19.00;19.00;;;;;28.39;19.92;102304.41;5056733;28;45451;-74
2022/03/22 03:10:24;;;;;;;;;24.00;21.33;;;;;28.35;19.65;102309.03;5056569;28;45335;-75
2022/03/22 03:12:58;;;;;;;;;23.00;21.67;;;;;28.13;19.75;102267.00;5056136;28;45727;-74
2022/03/22 03:15:24;;;;;;;;;25.33;22.33;;;;;28.10;20.10;102284.38;5056397;28;45890;-74
2022/03/22 03:17:49;;;;;;;;;20.67;19.00;;;;;28.03;20.18;102283.66;5056729;28;45367;-74
2022/03/22 03:20:14;;;;;;;;;20.33;19.00;;;;;28.14;20.04;102307.88;5056637;28;45392;-74
2022/03/22 03:22:40;;;;;;;;;18.33;15.67;;;;;28.09;20.19;102308.94;5056183;28;45274;-74
2022/03/22 03:25:06;;;;;;;;;27.00;24.00;;;;;28.04;20.30;102293.66;5056559;28;45946;-74
2022/03/22 03:27:32;;;;;;;;;28.00;22.00;;;;;27.85;20.14;102271.44;5056355;28;45263;-74
2022/03/22 03:29:58;;;;;;;;;22.00;20.33;;;;;28.00;20.34;102316.50;5055477;28;45324;-74
2022/03/22 03:32:23;;;;;;;;;23.67;22.67;;;;;27.81;20.29;102317.94;5055093;28;45513;-74
2022/03/22 03:34:49;;;;;;;;;22.00;20.33;;;;;27.90;20.08;102317.66;5056379;28;48834;-74
2022/03/22 03:37:14;;;;;;;;;22.00;21.00;;;;;28.00;19.87;102319.22;5056134;28;45411;-74
2022/03/22 03:39:40;;;;;;;;;18.67;18.67;;;;;27.94;20.01;102321.19;5056091;28;45435;-74
2022/03/22 03:42:06;;;;;;;;;20.33;20.33;;;;;27.98;20.07;102310.16;5056586;28;45498;-74
2022/03/22 03:47:20;;;;;;;;;27.33;19.33;;;;;28.03;19.84;102305.50;5056337;28;45324;-74
2022/03/22 03:49:52;;;;;;;;;23.67;22.33;;;;;28.11;20.22;102309.81;5055787;28;45417;-74
2022/03/22 03:52:26;;;;;;;;;23.67;22.00;;;;;28.13;19.51;102314.28;5056186;28;45554;-74
2022/03/22 03:54:52;;;;;;;;;21.00;19.00;;;;;27.85;20.05;102270.53;5055807;28;45495;-74
2022/03/22 03:57:19;;;;;;;;;23.33;22.67;;;;;28.08;19.99;102321.72;5056246;28;45369;-74
2022/03/22 03:59:45;;;;;;;;;26.00;22.00;;;;;27.99;20.21;102305.59;5055958;28;45589;-74
2022/03/22 04:02:11;;;;;;;;;21.33;21.00;;;;;28.05;19.93;102322.69;5056100;28;45322;-74
2022/03/22 04:04:38;;;;;;;;;21.33;20.67;;;;;27.94;20.24;102333.00;5055285;28;45447;-74
2022/03/22 04:07:05;;;;;;;;;25.33;20.00;;;;;27.78;20.30;102308.00;5055913;28;45532;-74
2022/03/22 04:09:34;;;;;;;;;24.33;20.33;;;;;27.85;20.24;102333.28;5055889;28;45659;-74
2022/03/22 04:12:00;;;;;;;;;24.67;23.67;;;;;27.53;20.42;102291.44;5055941;28;45225;-75
2022/03/22 04:14:25;;;;;;;;;22.33;21.00;;;;;27.67;20.75;102307.41;5055658;28;45983;-74
2022/03/22 04:16:51;;;;;;;;;23.67;21.00;;;;;27.80;20.23;102340.69;5055662;28;45377;-74
2022/03/22 04:19:16;;;;;;;;;24.00;19.33;;;;;27.57;20.53;102336.78;5055556;28;45322;-75
2022/03/22 04:21:42;;;;;;;;;21.67;20.67;;;;;27.65;21.01;102344.72;5054057;28;45592;-74
2022/03/22 04:24:11;;;;;;;;;23.33;21.67;;;;;27.64;20.72;102335.66;5055816;28;45960;-74
2022/03/22 04:26:39;;;;;;;;;28.00;26.67;;;;;27.64;20.63;102338.38;5055615;28;45575;-74
2022/03/22 04:34:38;;;;;;;;;20.67;19.67;;;;;27.54;21.02;102350.50;5055112;28;45884;-75
2022/03/22 04:37:05;;;;;;;;;22.33;18.00;;;;;27.62;20.46;102351.16;5055493;28;45487;-74
2022/03/22 04:39:31;;;;;;;;;22.67;21.00;;;;;27.62;20.54;102347.53;5055289;28;45444;-74
2022/03/22 04:41:58;;;;;;;;;24.33;22.67;;;;;27.65;20.20;102347.44;5055548;28;45478;-74
2022/03/22 04:44:26;;;;;;;;;21.33;20.33;;;;;27.52;20.55;102325.09;5055399;28;45531;-74
2022/03/22 04:46:52;;;;;;;;;20.00;20.00;;;;;27.72;20.23;102343.59;5055143;28;45363;-74
2022/03/22 04:49:17;;;;;;;;;23.00;21.33;;;;;27.38;20.33;102290.94;5053905;28;45416;-75
2022/03/22 04:57:11;;;;;;;;;22.67;19.67;;;;;27.29;20.39;102352.94;5055309;28;45368;-75
2022/03/22 04:59:36;;;;;;;;;21.67;20.67;;;;;27.20;20.34;102307.72;5054927;28;45404;-74
2022/03/22 05:02:02;;;;;;;;;30.00;23.67;;;;;27.35;20.29;102359.13;5055145;28;45245;-75
2022/03/22 05:04:28;;;;;;;;;26.67;24.33;;;;;27.17;20.42;102355.03;5054891;28;46528;-76
2022/03/22 05:06:54;;;;;;;;;22.00;18.33;;;;;27.26;20.46;102355.72;5054907;28;45365;-75
2022/03/22 05:09:20;;;;;;;;;24.33;19.33;;;;;27.27;20.61;102336.63;5055183;28;45451;-75
2022/03/22 05:11:45;;;;;;;;;27.33;23.67;;;;;27.38;20.15;102367.25;5054515;28;45572;-75
2022/03/22 05:14:11;;;;;;;;;25.33;25.33;;;;;27.24;20.38;102354.88;5054768;28;47963;-75
2022/03/22 05:16:37;;;;;;;;;22.33;22.00;;;;;27.29;20.22;102358.38;5054674;28;45390;-79
2022/03/22 05:19:09;;;;;;;;;25.00;23.67;;;;;27.30;20.15;102362.88;5055078;28;45444;-78
2022/03/22 05:21:34;;;;;;;;;26.67;21.00;;;;;27.08;19.90;102341.63;5054648;28;45544;-78
2022/03/22 05:24:00;;;;;;;;;25.33;20.67;;;;;26.77;20.19;102307.00;5054071;28;51194;-77
2022/03/22 05:26:28;;;;;;;;;21.00;20.00;;;;;26.96;20.16;102353.75;5047917;28;45642;-78
2022/03/22 05:28:54;;;;;;;;;21.00;19.67;;;;;26.81;20.44;102352.28;5045570;28;45396;-77
2022/03/22 05:31:21;;;;;;;;;23.00;23.00;;;;;26.40;20.25;102336.84;5047113;28;45305;-78
2022/03/22 05:33:47;;;;;;;;;26.67;22.67;;;;;25.78;20.49;102287.38;5076349;27;47327;-78
2022/03/22 05:36:12;;;;;;;;;24.33;24.33;;;;;26.37;20.27;102365.06;5045591;28;45413;-77
2022/03/22 05:38:37;;;;;;;;;24.33;22.67;;;;;26.34;20.63;102363.28;5041941;28;45311;-78
2022/03/22 05:41:03;;;;;;;;;26.33;23.00;;;;;26.15;20.42;102341.00;5045846;28;45317;-78
2022/03/22 05:43:29;;;;;;;;;23.33;23.00;;;;;26.00;20.62;102322.25;5046093;28;46200;-77
2022/03/22 05:45:54;;;;;;;;;23.67;21.00;;;;;26.24;20.74;102352.63;5077434;28;45430;-77
2022/03/22 05:48:21;;;;;;;;;28.33;24.00;;;;;26.45;20.68;102381.19;5077820;27;45379;-77
2022/03/22 05:50:47;;;;;;;;;26.33;26.00;;;;;26.55;20.47;102390.94;5078528;27;45621;-76
2022/03/22 05:53:14;;;;;;;;;23.33;21.00;;;;;26.66;20.15;102386.16;5078187;27;46121;-75
2022/03/22 05:55:40;;;;;;;;;25.33;23.67;;;;;26.61;20.46;102389.91;5077977;27;45412;-75
2022/03/22 05:58:09;;;;;;;;;20.67;19.00;;;;;26.36;20.48;102382.31;5077801;28;45457;-75
2022/03/22 06:00:35;;;;;;;;;20.67;20.00;;;;;26.62;20.34;102398.03;5057644;28;45580;-74
2022/03/22 06:03:01;;;;;;;;;21.67;21.67;;;;;26.65;20.33;102414.34;5071187;28;46034;-77
2022/03/22 06:05:30;;;;;;;;;24.00;20.00;;;;;26.34;20.13;102363.28;5077884;27;45428;-77
2022/03/22 06:07:56;;;;;;;;;22.67;20.67;;;;;26.26;20.39;102411.53;5065028;27;45896;-74
2022/03/22 06:10:22;;;;;;;;;26.67;20.00;;;;;26.26;20.57;102400.63;5048835;28;45556;-79
2022/03/22 06:12:51;;;;;;;;;24.00;22.00;;;;;26.35;20.66;102419.47;5056819;28;46476;-78
2022/03/22 06:15:38;;;;;;;;;26.33;24.67;;;;;26.51;20.26;102425.50;5057431;28;45322;-77
2022/03/22 06:18:05;;;;;;;;;27.67;23.00;;;;;26.24;20.25;102386.16;5057359;28;45421;-78
2022/03/22 06:20:32;;;;;;;;;27.00;23.33;;;;;26.43;20.41;102421.16;5077077;28;45409;-76
2022/03/22 06:23:00;;;;;;;;;33.00;26.67;;;;;26.42;20.27;102428.41;5075702;27;45502;-76
2022/03/22 06:25:26;;;;;;;;;26.00;22.67;;;;;26.01;20.66;102422.88;5057366;28;45365;-76
2022/03/22 06:27:53;;;;;;;;;24.33;20.67;;;;;25.90;20.64;102365.06;5057083;28;45346;-78
2022/03/22 06:30:20;;;;;;;;;24.00;21.00;;;;;26.36;20.18;102432.16;5056948;28;45336;-74
2022/03/22 06:32:49;;;;;;;;;21.00;21.00;;;;;26.50;20.26;102439.16;5074210;28;46181;-77
2022/03/22 06:35:16;;;;;;;;;26.67;22.67;;;;;26.41;19.78;102396.69;5065521;27;45493;-78
2022/03/22 06:37:43;;;;;;;;;28.67;23.67;;;;;26.52;19.74;102442.72;5055886;28;45467;-78
2022/03/22 06:40:10;;;;;;;;;25.33;24.00;;;;;26.25;20.38;102445.09;5056940;28;45589;-78
2022/03/22 06:42:36;;;;;;;;;31.00;29.33;;;;;25.92;20.73;102431.19;5056866;28;45536;-78
2022/03/22 06:45:03;;;;;;;;;30.33;27.67;;;;;25.88;20.28;102425.81;5055041;28;45381;-77
2022/03/22 06:47:29;;;;;;;;;28.33;25.67;;;;;25.48;20.92;102389.38;5056494;28;45435;-77
2022/03/22 06:49:55;;;;;;;;;23.33;21.67;;;;;25.48;21.11;102451.88;5058871;28;45576;-78
2022/03/22 06:52:20;;;;;;;;;26.00;21.33;;;;;25.31;21.41;102439.44;5054553;28;46803;-77
2022/03/22 06:54:46;;;;;;;;;22.00;21.00;;;;;25.26;21.13;102441.34;5055917;28;45472;-77
2022/03/22 06:57:11;;;;;;;;;25.33;24.00;;;;;24.97;21.33;102417.34;5069984;28;45428;-77
2022/03/22 06:59:36;;;;;;;;;24.67;23.00;;;;;25.25;21.29;102439.53;5056971;27;45371;-77
2022/03/22 07:02:04;;;;;;;;;25.33;22.00;;;;;25.10;21.05;102393.59;5066099;28;45556;-78
2022/03/22 07:04:31;;;;;;;;;37.33;31.67;;;;;25.17;20.56;102412.53;5035358;28;45412;-80
2022/03/22 07:06:56;;;;;;;;;26.00;20.67;;;;;25.62;20.87;102455.25;5043445;28;45455;-78
2022/03/22 07:09:22;;;;;;;;;18.67;18.67;;;;;26.06;20.32;102458.19;5046819;28;45412;-78
2022/03/22 07:11:49;;;;;;;;;25.00;23.67;;;;;25.98;20.14;102409.31;5044968;28;46091;-78
2022/03/22 07:14:19;;;;;;;;;26.00;26.00;;;;;25.76;19.95;102334.53;5044251;28;45515;-81
2022/03/22 07:16:48;;;;;;;;;24.00;24.00;;;;;26.04;19.74;102388.41;5037494;28;45404;-80
2022/03/22 07:19:22;;;;;;;;;25.67;24.67;;;;;26.57;19.61;102464.41;5044511;27;45700;-79
2022/03/22 07:21:49;;;;;;;;;35.33;27.33;;;;;25.83;20.11;102368.81;5042272;28;45419;-79
2022/03/22 07:24:18;;;;;;;;;28.33;28.33;;;;;26.58;20.06;102460.75;5077052;27;45432;-78
2022/03/22 07:26:44;;;;;;;;;26.67;21.00;;;;;25.28;20.12;102252.06;5050179;28;45506;-80
2022/03/22 07:29:10;;;;;;;;;28.00;27.67;;;;;26.52;19.45;102457.22;5040556;28;45440;-78
2022/03/22 07:31:38;;;;;;;;;27.00;23.67;;;;;26.49;20.07;102465.47;5040256;28;45678;-79
2022/03/22 07:34:06;;;;;;;;;30.33;25.33;;;;;25.87;19.59;102331.59;5049682;28;45549;-81
2022/03/22 07:36:31;;;;;;;;;25.00;22.00;;;;;25.91;19.86;102315.19;5050752;28;45449;-80
2022/03/22 07:38:57;;;;;;;;;26.33;22.33;;;;;25.52;19.07;102234.41;5039295;28;45573;-81
2022/03/22 07:41:22;;;;;;;;;29.00;25.67;;;;;26.28;19.60;102389.72;5037728;28;52132;-78
2022/03/22 07:43:48;;;;;;;;;22.33;20.33;;;;;26.57;19.32;102432.66;5040504;28;45431;-80
2022/03/22 07:46:13;;;;;;;;;31.00;24.67;;;;;26.39;19.06;102422.16;5040900;28;46083;-79
2022/03/22 07:48:38;;;;;;;;;25.33;23.00;;;;;26.48;19.39;102430.13;5049049;28;45480;-83
2022/03/22 07:53:48;;;;;;;;;21.33;20.00;;;;;27.00;18.59;102471.66;5038926;28;45451;-83
2022/03/22 07:56:13;;;;;;;;;22.33;20.67;;;;;26.28;18.56;102357.97;5047463;28;45548;-83
2022/03/22 07:58:38;;;;;;;;;27.00;24.67;;;;;25.55;19.17;102224.41;5054870;28;45475;-82
2022/03/22 08:01:04;;;;;;;;;26.00;22.00;;;;;26.67;18.72;102398.84;5039097;28;48205;-83
2022/03/22 08:03:30;;;;;;;;;24.67;23.33;;;;;25.96;18.42;102397.59;5038995;28;45428;-83
2022/03/22 08:05:55;;;;;;;;;27.33;25.33;;;;;26.75;18.99;102472.25;5054592;28;45454;-83
2022/03/22 08:08:21;;;;;;;;;24.33;21.00;;;;;26.15;18.41;102341.00;5035371;28;45540;-83
2022/03/22 08:10:47;;;;;;;;;26.00;23.33;;;;;26.91;18.10;102472.78;5043951;28;46162;-84
2022/03/22 08:13:13;;;;;;;;;22.33;21.00;;;;;25.70;17.87;102248.56;5042805;28;45416;-84
2022/03/22 08:15:39;;;;;;;;;22.00;18.33;;;;;26.74;17.08;102473.16;5037585;28;45400;-84
2022/03/22 08:18:05;;;;;;;;;28.00;23.00;;;;;25.53;16.68;102319.56;5083316;27;45417;-84
2022/03/22 08:20:31;;;;;;;;;23.67;22.00;;;;;26.81;17.20;102471.19;5047581;28;47291;-84
2022/03/22 08:23:04;;;;;;;;;23.33;21.67;;;;;25.58;16.94;102317.63;5040888;28;45615;-80
2022/03/22 08:25:32;;;;;;;;;22.33;22.33;;;;;26.79;16.67;102476.69;5044172;28;45704;-80
2022/03/22 08:28:00;;;;;;;;;22.67;22.67;;;;;26.30;16.54;102472.19;5069046;28;45489;-77
2022/03/22 08:30:26;;;;;;;;;29.00;23.00;;;;;26.06;16.81;102446.38;5075312;28;45470;-76
2022/03/22 08:32:55;;;;;;;;;27.00;22.00;;;;;25.70;17.05;102440.69;5075707;27;45342;-77
2022/03/22 08:35:22;;;;;;;;;19.67;19.67;;;;;25.96;16.72;102468.28;5075711;27;45403;-78
2022/03/22 08:37:47;;;;;;;;;17.33;17.33;;;;;25.59;16.06;102395.53;5075718;27;45444;-79
2022/03/22 08:40:14;;;;;;;;;26.00;22.67;;;;;25.71;16.40;102415.25;5060684;27;46139;-77
2022/03/22 08:42:47;;;;;;;;;23.33;22.33;;;;;26.32;16.57;102463.09;5041328;28;45701;-76
2022/03/22 08:45:18;;;;;;;;;23.00;20.00;;;;;26.17;16.16;102467.03;5050528;28;45450;-79
2022/03/22 08:47:45;;;;;;;;;23.67;21.67;;;;;25.89;15.61;102398.59;5048596;28;46499;-76
2022/03/22 08:50:13;;;;;;;;;20.67;19.67;;;;;25.93;16.00;102460.16;5055305;28;46457;-79
2022/03/22 08:52:40;;;;;;;;;21.67;20.67;;;;;26.34;15.74;102491.19;5053888;28;45369;-76
2022/03/22 08:55:12;;;;;;;;;21.67;19.00;;;;;26.40;15.25;102489.25;5052315;28;45582;-76
2022/03/22 08:57:39;;;;;;;;;20.00;19.00;;;;;26.13;15.01;102445.31;5051792;28;45304;-78
2022/03/22 09:00:10;;;;;;;;;21.67;16.00;;;;;26.41;15.17;102482.88;5054884;28;45732;-77
2022/03/22 09:02:37;;;;;;;;;18.00;18.00;;;;;26.51;15.38;102463.63;5063317;27;45508;-75
2022/03/22 09:07:47;;;;;;;;;21.67;17.67;;;;;26.50;14.13;102490.88;5057025;28;45333;-76
2022/03/22 09:10:14;;;;;;;;;20.33;17.33;;;;;26.36;14.96;102464.81;5054011;28;47434;-74
2022/03/22 09:12:40;;;;;;;;;18.00;17.00;;;;;26.73;14.61;102482.25;5063989;27;45466;-74
2022/03/22 09:15:10;;;;;;;;;18.67;17.67;;;;;26.91;14.40;102472.78;5064326;28;45454;-76
2022/03/22 09:17:35;;;;;;;;;12.33;12.33;;;;;26.68;14.05;102482.31;5066288;28;45586;-75
2022/03/22 09:20:01;;;;;;;;;20.33;17.67;;;;;26.41;14.46;102455.66;5061214;27;45449;-75
2022/03/22 09:22:27;;;;;;;;;22.00;18.33;;;;;27.02;14.75;102491.63;5062061;27;45501;-76
2022/03/22 09:24:53;;;;;;;;;23.33;19.67;;;;;27.00;14.22;102450.78;5063467;28;45818;-74
2022/03/22 09:27:18;;;;;;;;;17.00;16.00;;;;;27.07;14.26;102446.06;5065433;27;45382;-74
2022/03/22 09:29:43;;;;;;;;;16.67;15.67;;;;;27.53;14.14;102491.34;5060209;28;46010;-75
2022/03/22 09:32:09;;;;;;;;;23.33;21.67;;;;;27.79;14.01;102494.34;5055945;28;45398;-76
2022/03/22 09:34:34;;;;;;;;;18.00;17.00;;;;;27.41;14.02;102449.84;5063809;28;45415;-75
2022/03/22 09:37:00;;;;;;;;;18.00;18.00;;;;;27.41;14.29;102488.00;5063026;28;45571;-75
2022/03/22 09:39:26;;;;;;;;;20.67;18.67;;;;;27.51;14.18;102495.03;5062644;27;45510;-74
2022/03/22 09:41:51;;;;;;;;;22.00;18.00;;;;;26.84;14.28;102394.88;5037373;28;45611;-79
2022/03/22 09:44:18;;;;;;;;;22.33;20.67;;;;;27.61;13.87;102491.16;5045078;28;45785;-75
2022/03/22 09:46:50;;;;;;;;;20.00;18.67;;;;;27.48;14.30;102492.38;5034996;27;45763;-75
2022/03/22 09:49:18;;;;;;;;;16.00;14.67;;;;;27.49;14.12;102481.44;5040571;28;46322;-73
2022/03/22 09:51:44;;;;;;;;;18.33;16.67;;;;;27.69;14.09;102470.06;5045501;28;45338;-76
2022/03/22 09:54:13;;;;;;;;;20.33;16.33;;;;;28.01;13.78;102481.06;5078460;27;45809;-75
2022/03/22 09:56:44;;;;;;;;;19.67;17.67;;;;;27.90;13.89;102475.84;5046928;28;45622;-74
2022/03/22 09:59:10;;;;;;;;;20.00;19.00;;;;;27.78;14.02;102488.00;5055599;28;45543;-73
2022/03/22 10:01:36;;;;;;;;;17.33;17.33;;;;;27.80;13.85;102441.59;5077521;27;45578;-73
2022/03/22 10:04:02;;;;;;;;;16.00;15.00;;;;;27.73;13.80;102490.84;5048261;28;45458;-74
2022/03/22 10:06:29;;;;;;;;;17.33;16.33;;;;;27.65;14.01;102454.69;5047809;28;45595;-74
2022/03/22 10:08:55;;;;;;;;;17.67;15.67;;;;;28.14;13.83;102478.91;5047371;28;46181;-74
2022/03/22 10:11:22;;;;;;;;;18.00;16.33;;;;;27.99;13.58;102450.19;5035986;28;45429;-74
2022/03/22 10:13:55;;;;;;;;;20.33;19.00;;;;;28.41;13.79;102460.88;5039196;28;45457;-75
2022/03/22 10:16:21;;;;;;;;;18.33;16.33;;;;;28.27;13.44;102446.69;5045019;28;45434;-76
2022/03/22 10:18:46;;;;;;;;;16.00;16.00;;;;;28.40;13.91;102462.69;5048606;28;46258;-75
2022/03/22 10:21:12;;;;;;;;;17.33;17.33;;;;;28.51;13.45;102472.38;5046444;28;45585;-75
2022/03/22 10:23:49;;;;;;;;;19.67;19.67;;;;;28.03;13.40;102477.38;5042643;28;45570;-75
2022/03/22 10:26:14;;;;;;;;;18.67;17.00;;;;;28.31;13.75;102476.59;5039305;28;45444;-77
2022/03/22 10:28:51;;;;;;;;;18.67;18.67;;;;;28.29;13.47;102473.00;5029775;28;46402;-75
2022/03/22 10:31:17;;;;;;;;;21.33;20.00;;;;;28.57;13.50;102466.75;5035444;28;45592;-76
2022/03/22 10:33:53;;;;;;;;;20.67;18.00;;;;;28.74;13.49;102471.75;5034914;28;45466;-76
2022/03/22 10:36:21;;;;;;;;;18.00;16.67;;;;;28.85;13.64;102460.50;5050681;28;45564;-77
2022/03/22 10:38:57;;;;;;;;;19.67;19.00;;;;;28.62;13.11;102463.88;5049676;28;45549;-76
2022/03/22 10:41:27;;;;;;;;;17.33;17.00;;;;;28.52;13.46;102449.59;5047715;28;45618;-76
2022/03/22 10:44:06;;;;;;;;;17.00;15.67;;;;;28.30;13.19;102461.16;5038609;28;45467;-76
2022/03/22 10:46:33;;;;;;;;;20.00;20.00;;;;;28.15;13.43;102453.41;5037710;28;45584;-76
2022/03/22 10:49:10;;;;;;;;;19.67;18.67;;;;;28.33;13.93;102432.88;5040107;28;45494;-76
2022/03/22 10:51:42;;;;;;;;;18.67;18.67;;;;;28.93;13.80;102447.50;5034847;28;45760;-76
2022/03/22 10:54:09;;;;;;;;;18.00;17.67;;;;;29.01;14.05;102434.47;5038986;28;45841;-75
2022/03/22 10:56:35;;;;;;;;;20.00;18.00;;;;;29.35;14.08;102444.34;5040498;28;45662;-76
2022/03/22 10:59:02;;;;;;;;;22.33;19.67;;;;;29.63;14.11;102440.66;5048626;28;45573;-76
2022/03/22 11:01:28;;;;;;;;;24.33;21.00;;;;;29.38;13.77;102416.91;5047038;28;45551;-75
2022/03/22 11:03:56;;;;;;;;;20.67;19.00;;;;;29.56;14.04;102431.78;5042131;28;45619;-76
2022/03/22 11:06:28;;;;;;;;;20.00;20.00;;;;;29.59;13.81;102449.91;5047974;28;45491;-76
2022/03/22 11:08:54;;;;;;;;;21.33;20.33;;;;;29.68;13.72;102446.88;5041063;28;45792;-76
2022/03/22 11:11:20;;;;;;;;;23.67;19.67;;;;;29.83;14.01;102439.06;5041929;28;45858;-76
2022/03/22 11:13:45;;;;;;;;;19.33;18.33;;;;;29.56;13.13;102384.38;5075989;27;45575;-76
2022/03/22 11:16:12;;;;;;;;;20.00;19.00;;;;;29.80;13.83;102433.69;5030831;28;45755;-76
2022/03/22 11:18:39;;;;;;;;;17.67;17.00;;;;;29.65;13.42;102413.25;5037650;28;46171;-76
2022/03/22 11:21:04;;;;;;;;;16.00;15.67;;;;;29.90;13.38;102440.66;5041344;28;45447;-76
2022/03/22 11:23:32;;;;;;;;;21.33;19.33;;;;;29.98;13.81;102415.78;5049649;28;45498;-76
2022/03/22 11:26:08;;;;;;;;;20.33;19.67;;;;;29.77;13.54;102363.56;5049574;28;45859;-76
2022/03/22 11:28:34;;;;;;;;;19.33;19.33;;;;;30.25;14.06;102430.25;5039294;28;45514;-77
2022/03/22 11:31:01;;;;;;;;;18.00;17.67;;;;;30.26;13.84;102397.34;5048056;28;45497;-76
2022/03/22 11:36:20;;;;;;;;;18.33;16.00;;;;;30.09;13.81;102413.53;5045831;28;45560;-76